Time;durP1;ratioP1;P1;durP2;ratioP2;P2;SDS_P1;SDS_P2;PMS_P1;PMS_P2;Temp;Humidity;BMP_temperature;BMP_pressure;BME280_temperature;BME280_humidity;BME280_pressure;Samples;Min_cycle;Max_cycle;Signal;HPM_P1;HPM_P2
2022/04/10 00:00:53;;;;;;;;;;;;;;;;;;5087748;28;19931;-66
2022/04/10 00:03:21;;;;;;;;;;;;;;;;;;5087230;28;19924;-66
2022/04/10 00:05:47;;;;;;;;;;;;;;;;;;5088095;28;19924;-66
2022/04/10 00:08:13;;;;;;;;;;;;;;;;;;5085790;28;19928;-67
2022/04/10 00:10:39;;;;;;;;;;;;;;;;;;5088641;28;19924;-67
2022/04/10 00:13:05;;;;;;;;;;;;;;;;;;5088338;28;20477;-68
2022/04/10 00:15:32;;;;;;;;;;;;;;;;;;5083945;28;19932;-68
2022/04/10 00:17:58;;;;;;;;;;;;;;;;;;5084594;28;19928;-68
2022/04/10 00:20:24;;;;;;;;;;;;;;;;;;5088807;28;19924;-67
2022/04/10 00:22:50;;;;;;;;;;;;;;;;;;5088434;28;19928;-68
2022/04/10 00:25:16;;;;;;;;;;;;;;;;;;5086708;28;20407;-68
2022/04/10 00:27:42;;;;;;;;;;;;;;;;;;5089017;28;19935;-67
2022/04/10 00:30:08;;;;;;;;;;;;;;;;;;5090070;28;19931;-67
2022/04/10 00:32:35;;;;;;;;;;;;;;;;;;5088597;28;20001;-68
2022/04/10 00:35:01;;;;;;;;;;;;;;;;;;5087476;28;19939;-68
2022/04/10 00:37:27;;;;;;;;;;;;;;;;;;5089531;28;20041;-64
2022/04/10 00:39:53;;;;;;;;;;;;;;;;;;5085580;28;19924;-63
2022/04/10 00:42:19;;;;;;;;;;;;;;;;;;5085899;28;19947;-71
2022/04/10 00:44:47;;;;;;;;;;;;;;;;;;5085341;28;19928;-70
2022/04/10 00:47:13;;;;;;;;;;;;;;;;;;5088087;28;19928;-68
2022/04/10 00:49:39;;;;;;;;;;;;;;;;;;5082521;28;19955;-69
2022/04/10 00:52:06;;;;;;;;;;;;;;;;;;5086943;28;19924;-68
2022/04/10 00:54:32;;;;;;;;;;;;;;;;;;5087503;28;19936;-69
2022/04/10 00:57:00;;;;;;;;;;;;;;;;;;5087009;28;19924;-70
2022/04/10 00:59:26;;;;;;;;;;;;;;;;;;5084844;28;19924;-69
2022/04/10 01:01:53;;;;;;;;;;;;;;;;;;5084781;28;19927;-66
2022/04/10 01:04:19;;;;;;;;;;;;;;;;;;5086288;28;19925;-66
2022/04/10 01:06:45;;;;;;;;;;;;;;;;;;5089936;28;19924;-66
2022/04/10 01:09:11;;;;;;;;;;;;;;;;;;5089433;28;20320;-66
2022/04/10 01:11:37;;;;;;;;;;;;;;;;;;5086847;28;19950;-66
2022/04/10 01:14:04;;;;;;;;;;;;;;;;;;5084423;28;20079;-65
2022/04/10 01:16:30;;;;;;;;;;;;;;;;;;5089699;28;19935;-66
2022/04/10 01:18:57;;;;;;;;;;;;;;;;;;5083293;28;19928;-67
2022/04/10 01:21:23;;;;;;;;;;;;;;;;;;5083779;28;19924;-65
2022/04/10 01:23:49;;;;;;;;;;;;;;;;;;5088675;28;19967;-65
2022/04/10 01:26:15;;;;;;;;;;;;;;;;;;5087141;28;19924;-64
2022/04/10 01:28:41;;;;;;;;;;;;;;;;;;5087744;28;20489;-63
2022/04/10 01:31:07;;;;;;;;;;;;;;;;;;5087153;28;19924;-64
2022/04/10 01:33:34;;;;;;;;;;;;;;;;;;5087152;28;19924;-63
2022/04/10 01:36:00;;;;;;;;;;;;;;;;;;5085803;28;19973;-64
2022/04/10 01:38:26;;;;;;;;;;;;;;;;;;5082431;28;20110;-64
2022/04/10 01:40:52;;;;;;;;;;;;;;;;;;5084124;28;20416;-63
2022/04/10 01:43:18;;;;;;;;;;;;;;;;;;5083170;28;19924;-64
2022/04/10 01:45:44;;;;;;;;;;;;;;;;;;5091465;28;20298;-63
2022/04/10 01:48:11;;;;;;;;;;;;;;;;;;5084905;28;20269;-61
2022/04/10 01:50:37;;;;;;;;;;;;;;;;;;5087637;28;19924;-62
2022/04/10 01:53:03;;;;;;;;;;;;;;;;;;5087092;28;19928;-65
2022/04/10 01:55:29;;;;;;;;;;;;;;;;;;5081750;28;19928;-67
2022/04/10 01:57:55;;;;;;;;;;;;;;;;;;5086879;28;19924;-65
2022/04/10 02:00:21;;;;;;;;;;;;;;;;;;5086172;28;20399;-68
2022/04/10 02:02:47;;;;;;;;;;;;;;;;;;5095447;22;19924;-64
2022/04/10 02:05:14;;;;;;;;;;;;;;;;;;5056946;28;19925;-65
2022/04/10 02:07:40;;;;;;;;;;;;;;;;;;5043980;28;19925;-64
2022/04/10 02:10:06;;;;;;;;;;;;;;;;;;5043744;28;19925;-65
2022/04/10 02:12:32;;;;;;;;;;;;;;;;;;5043060;28;20316;-64
2022/04/10 02:14:59;;;;;;;;;;;;;;;;;;5045124;28;19986;-66
2022/04/10 02:17:26;;;;;;;;;;;;;;;;;;5052965;28;19980;-64
2022/04/10 02:19:52;;;;;;;;;;;;;;;;;;5050625;28;19933;-64
2022/04/10 02:22:18;;;;;;;;;;;;;;;;;;5050842;28;19928;-64
2022/04/10 02:24:44;;;;;;;;;;;;;;;;;;5051224;28;19929;-63
2022/04/10 02:27:10;;;;;;;;;;;;;;;;;;5047305;28;19929;-66
2022/04/10 02:29:36;;;;;;;;;;;;;;;;;;5047485;28;20023;-69
2022/04/10 02:32:02;;;;;;;;;;;;;;;;;;5048266;28;19936;-70
2022/04/10 02:34:29;;;;;;;;;;;;;;;;;;5044032;28;19924;-71
2022/04/10 02:36:55;;;;;;;;;;;;;;;;;;5042537;28;19940;-73
2022/04/10 02:39:21;;;;;;;;;;;;;;;;;;5047314;28;20389;-71
2022/04/10 02:41:47;;;;;;;;;;;;;;;;;;5049327;28;20218;-71
2022/04/10 02:44:14;;;;;;;;;;;;;;;;;;5042694;28;19924;-71
2022/04/10 02:46:40;;;;;;;;;;;;;;;;;;5048595;28;19929;-70
2022/04/10 02:49:06;;;;;;;;;;;;;;;;;;5045361;28;19931;-69
2022/04/10 02:51:32;;;;;;;;;;;;;;;;;;5043009;28;19925;-68
2022/04/10 02:53:58;;;;;;;;;;;;;;;;;;5044574;28;20004;-68
2022/04/10 02:56:24;;;;;;;;;;;;;;;;;;5044911;28;20198;-68
2022/04/10 02:58:51;;;;;;;;;;;;;;;;;;5042454;28;20374;-67
2022/04/10 03:01:17;;;;;;;;;;;;;;;;;;5040247;28;19929;-66
2022/04/10 03:03:43;;;;;;;;;;;;;;;;;;5040775;28;19925;-65
2022/04/10 03:06:09;;;;;;;;;;;;;;;;;;5044294;28;19924;-65
2022/04/10 03:08:35;;;;;;;;;;;;;;;;;;5047129;28;19935;-65
2022/04/10 03:11:03;;;;;;;;;;;;;;;;;;5047359;28;19925;-66
2022/04/10 03:13:29;;;;;;;;;;;;;;;;;;5048542;28;19932;-66
2022/04/10 03:15:56;;;;;;;;;;;;;;;;;;5048832;28;19929;-65
2022/04/10 03:18:22;;;;;;;;;;;;;;;;;;5043544;28;19932;-66
2022/04/10 03:20:48;;;;;;;;;;;;;;;;;;5049507;28;19925;-67
2022/04/10 03:23:14;;;;;;;;;;;;;;;;;;5048585;28;20267;-65
2022/04/10 03:25:40;;;;;;;;;;;;;;;;;;5043625;28;19940;-66
2022/04/10 03:28:06;;;;;;;;;;;;;;;;;;5045865;28;19933;-65
2022/04/10 03:30:34;;;;;;;;;;;;;;;;;;5045078;28;20301;-65
2022/04/10 03:33:00;;;;;;;;;;;;;;;;;;5045147;28;19955;-66
2022/04/10 03:35:26;;;;;;;;;;;;;;;;;;5045517;28;19940;-65
2022/04/10 03:37:52;;;;;;;;;;;;;;;;;;5044878;28;19933;-66
2022/04/10 03:40:18;;;;;;;;;;;;;;;;;;5047467;28;19936;-65
2022/04/10 03:42:44;;;;;;;;;;;;;;;;;;4697680;28;9999816;-66
2022/04/10 03:45:10;;;;;;;;;;;;;;;;;;5046237;28;20155;-66
2022/04/10 03:47:37;;;;;;;;;;;;;;;;;;5047691;28;19935;-66
2022/04/10 03:50:03;;;;;;;;;;;;;;;;;;5044092;28;19925;-66
2022/04/10 03:52:29;;;;;;;;;;;;;;;;;;5044522;28;20376;-66
2022/04/10 03:54:55;;;;;;;;;;;;;;;;;;5044703;28;19929;-66
2022/04/10 03:57:21;;;;;;;;;;;;;;;;;;5045982;28;19932;-66
2022/04/10 03:59:47;;;;;;;;;;;;;;;;;;5043397;28;19929;-66
2022/04/10 04:02:13;;;;;;;;;;;;;;;;;;5047581;28;19931;-65
2022/04/10 04:04:40;;;;;;;;;;;;;;;;;;5046942;28;19929;-65
2022/04/10 04:07:06;;;;;;;;;;;;;;;;;;5044807;28;19944;-65
2022/04/10 04:09:32;;;;;;;;;;;;;;;;;;5045669;28;20422;-65
2022/04/10 04:11:58;;;;;;;;;;;;;;;;;;5043472;28;19929;-66
2022/04/10 04:14:24;;;;;;;;;;;;;;;;;;5044284;28;19935;-66
2022/04/10 04:16:50;;;;;;;;;;;;;;;;;;5042535;28;20289;-65
2022/04/10 04:19:17;;;;;;;;;;;;;;;;;;5042924;28;20394;-66
2022/04/10 04:21:43;;;;;;;;;;;;;;;;;;5044304;28;19944;-66
2022/04/10 04:24:09;;;;;;;;;;;;;;;;;;5044013;28;19933;-65
2022/04/10 04:26:35;;;;;;;;;;;;;;;;;;5043036;28;20244;-66
2022/04/10 04:29:01;;;;;;;;;;;;;;;;;;5043670;28;19955;-65
2022/04/10 04:31:27;;;;;;;;;;;;;;;;;;5042929;28;19955;-65
2022/04/10 04:33:53;;;;;;;;;;;;;;;;;;5043970;28;19936;-65
2022/04/10 04:36:20;;;;;;;;;;;;;;;;;;5046699;28;19944;-66
2022/04/10 04:38:46;;;;;;;;;;;;;;;;;;5046798;28;19951;-65
2022/04/10 04:41:12;;;;;;;;;;;;;;;;;;5045327;28;19933;-66
2022/04/10 04:43:38;;;;;;;;;;;;;;;;;;5044697;28;19933;-66
2022/04/10 04:46:04;;;;;;;;;;;;;;;;;;5044142;28;20424;-65
2022/04/10 04:48:30;;;;;;;;;;;;;;;;;;5043995;28;19933;-66
2022/04/10 04:50:57;;;;;;;;;;;;;;;;;;5042459;28;20398;-65
2022/04/10 04:53:23;;;;;;;;;;;;;;;;;;5043078;28;19929;-65
2022/04/10 04:55:49;;;;;;;;;;;;;;;;;;5042877;28;19935;-65
2022/04/10 04:58:15;;;;;;;;;;;;;;;;;;5044411;28;19951;-66
2022/04/10 05:00:41;;;;;;;;;;;;;;;;;;5043160;28;19932;-66
2022/04/10 05:03:08;;;;;;;;;;;;;;;;;;5043561;28;19928;-66
2022/04/10 05:05:34;;;;;;;;;;;;;;;;;;5044825;28;19929;-66
2022/04/10 05:08:00;;;;;;;;;;;;;;;;;;5045414;28;19929;-66
2022/04/10 05:10:26;;;;;;;;;;;;;;;;;;5041205;28;20618;-66
2022/04/10 05:12:52;;;;;;;;;;;;;;;;;;5045376;28;19932;-65
2022/04/10 05:15:18;;;;;;;;;;;;;;;;;;5043103;28;19929;-65
2022/04/10 05:17:44;;;;;;;;;;;;;;;;;;5041489;28;20321;-66
2022/04/10 05:20:11;;;;;;;;;;;;;;;;;;5041179;28;19929;-66
2022/04/10 05:22:37;;;;;;;;;;;;;;;;;;5044374;28;19933;-66
2022/04/10 05:25:03;;;;;;;;;;;;;;;;;;5041275;28;19929;-66
2022/04/10 05:27:29;;;;;;;;;;;;;;;;;;5042765;28;19925;-65
2022/04/10 05:29:55;;;;;;;;;;;;;;;;;;5046165;28;19924;-65
2022/04/10 05:32:21;;;;;;;;;;;;;;;;;;5043668;28;19933;-65
2022/04/10 05:34:47;;;;;;;;;;;;;;;;;;5046865;28;19940;-65
2022/04/10 05:37:14;;;;;;;;;;;;;;;;;;5043678;28;19932;-65
2022/04/10 05:39:40;;;;;;;;;;;;;;;;;;5044507;28;19928;-65
2022/04/10 05:42:06;;;;;;;;;;;;;;;;;;5043948;28;19932;-65
2022/04/10 05:44:33;;;;;;;;;;;;;;;;;;5042015;28;19925;-65
2022/04/10 05:46:59;;;;;;;;;;;;;;;;;;5045253;28;20214;-65
2022/04/10 05:49:26;;;;;;;;;;;;;;;;;;5040278;28;20316;-66
2022/04/10 05:51:52;;;;;;;;;;;;;;;;;;5041753;28;19929;-66
2022/04/10 05:54:18;;;;;;;;;;;;;;;;;;5046989;28;19935;-68
2022/04/10 05:56:44;;;;;;;;;;;;;;;;;;5047499;28;20290;-68
2022/04/10 05:59:10;;;;;;;;;;;;;;;;;;5046118;28;20335;-69
2022/04/10 06:01:38;;;;;;;;;;;;;;;;;;5041555;28;21323;-68
2022/04/10 06:04:04;;;;;;;;;;;;;;;;;;5043963;28;20297;-68
2022/04/10 06:06:30;;;;;;;;;;;;;;;;;;5047507;28;20297;-70
2022/04/10 06:08:57;;;;;;;;;;;;;;;;;;5044823;28;19929;-69
2022/04/10 06:11:23;;;;;;;;;;;;;;;;;;5046856;28;19932;-68
2022/04/10 06:13:49;;;;;;;;;;;;;;;;;;5043682;28;19936;-69
2022/04/10 06:16:15;;;;;;;;;;;;;;;;;;5043824;28;20305;-68
2022/04/10 06:18:41;;;;;;;;;;;;;;;;;;5042417;28;19929;-69
2022/04/10 06:21:07;;;;;;;;;;;;;;;;;;5044385;28;20455;-68
2022/04/10 06:23:33;;;;;;;;;;;;;;;;;;5051729;28;19929;-68
2022/04/10 06:26:00;;;;;;;;;;;;;;;;;;5054569;28;19932;-69
2022/04/10 06:28:26;;;;;;;;;;;;;;;;;;5050272;28;19935;-68
2022/04/10 06:30:52;;;;;;;;;;;;;;;;;;5050977;28;20219;-68
2022/04/10 06:33:18;;;;;;;;;;;;;;;;;;5044478;28;19943;-68
2022/04/10 06:35:47;;;;;;;;;;;;;;;;;;5043951;28;19929;-69
2022/04/10 06:38:13;;;;;;;;;;;;;;;;;;5039040;28;20677;-68
2022/04/10 06:40:39;;;;;;;;;;;;;;;;;;5041964;28;20301;-68
2022/04/10 06:43:06;;;;;;;;;;;;;;;;;;5049689;28;19940;-68
2022/04/10 06:45:32;;;;;;;;;;;;;;;;;;5047572;28;19944;-68
2022/04/10 06:47:58;;;;;;;;;;;;;;;;;;5047914;28;19951;-68
2022/04/10 06:50:24;;;;;;;;;;;;;;;;;;5048778;28;19929;-68
2022/04/10 06:52:50;;;;;;;;;;;;;;;;;;5047393;28;19932;-68
2022/04/10 06:55:16;;;;;;;;;;;;;;;;;;5047644;28;20543;-67
2022/04/10 06:57:43;;;;;;;;;;;;;;;;;;5049544;28;19932;-69
2022/04/10 07:00:09;;;;;;;;;;;;;;;;;;5048598;28;20041;-69
2022/04/10 07:02:35;;;;;;;;;;;;;;;;;;5045567;28;20445;-69
2022/04/10 07:05:01;;;;;;;;;;;;;;;;;;5049761;28;19928;-69
2022/04/10 07:07:28;;;;;;;;;;;;;;;;;;5042031;28;19928;-69
2022/04/10 07:09:54;;;;;;;;;;;;;;;;;;5046317;28;19979;-69
2022/04/10 07:12:20;;;;;;;;;;;;;;;;;;5045613;28;20596;-70
2022/04/10 07:14:46;;;;;;;;;;;;;;;;;;5047142;28;19929;-68
2022/04/10 07:17:13;;;;;;;;;;;;;;;;;;5047787;28;19928;-69
2022/04/10 07:19:39;;;;;;;;;;;;;;;;;;5047659;28;20452;-69
2022/04/10 07:24:49;;;;;;;;;;;;;;;;;;5051511;28;19932;-69
2022/04/10 07:27:15;;;;;;;;;;;;;;;;;;5049610;28;20570;-70
2022/04/10 07:29:42;;;;;;;;;;;;;;;;;;5049601;28;19935;-69
2022/04/10 07:32:08;;;;;;;;;;;;;;;;;;5048391;28;20321;-69
2022/04/10 07:34:34;;;;;;;;;;;;;;;;;;5041553;28;19935;-73
2022/04/10 07:37:00;;;;;;;;;;;;;;;;;;5050300;28;19929;-70
2022/04/10 07:39:26;;;;;;;;;;;;;;;;;;5048869;28;19928;-70
2022/04/10 07:41:53;;;;;;;;;;;;;;;;;;5054752;28;19925;-73
2022/04/10 07:44:19;;;;;;;;;;;;;;;;;;5071428;28;19929;-72
2022/04/10 07:49:40;;;;;;;;;;;;;;;;;;5003520;28;19985;-72
2022/04/10 07:52:07;;;;;;;;;;;;;;;;;;5050322;28;19929;-71
2022/04/10 07:54:33;;;;;;;;;;;;;;;;;;5063314;28;19932;-71
2022/04/10 07:56:59;;;;;;;;;;;;;;;;;;5059193;28;20063;-64
2022/04/10 07:59:25;;;;;;;;;;;;;;;;;;5066249;28;19929;-65
2022/04/10 08:01:51;;;;;;;;;;;;;;;;;;5064381;28;19928;-65
2022/04/10 08:04:17;;;;;;;;;;;;;;;;;;5070642;22;20226;-69
2022/04/10 08:06:43;;;;;;;;;;;;;;;;;;5086513;28;19927;-70
2022/04/10 08:09:10;;;;;;;;;;;;;;;;;;5088186;28;19936;-69
2022/04/10 08:11:36;;;;;;;;;;;;;;;;;;5088099;28;19932;-69
2022/04/10 08:14:02;;;;;;;;;;;;;;;;;;5089269;28;19932;-69
2022/04/10 08:16:28;;;;;;;;;;;;;;;;;;5068727;28;20031;-69
2022/04/10 08:18:56;;;;;;;;;;;;;;;;;;5068585;28;19936;-69
2022/04/10 08:21:22;;;;;;;;;;;;;;;;;;5076317;28;19989;-70
2022/04/10 08:23:48;;;;;;;;;;;;;;;;;;5066973;28;19928;-70
2022/04/10 08:26:14;;;;;;;;;;;;;;;;;;5067738;28;20388;-70
2022/04/10 08:28:40;;;;;;;;;;;;;;;;;;5069529;28;20233;-71
2022/04/10 08:31:06;;;;;;;;;;;;;;;;;;5064696;28;19929;-71
2022/04/10 08:33:32;;;;;;;;;;;;;;;;;;5058625;28;19928;-71
2022/04/10 08:35:59;;;;;;;;;;;;;;;;;;5053437;28;19928;-71
2022/04/10 08:38:25;;;;;;;;;;;;;;;;;;5067135;28;19943;-72
2022/04/10 08:40:51;;;;;;;;;;;;;;;;;;5062522;28;19929;-71
2022/04/10 08:43:17;;;;;;;;;;;;;;;;;;5057645;28;19935;-70
2022/04/10 08:45:43;;;;;;;;;;;;;;;;;;5060758;28;19935;-70
2022/04/10 08:48:09;;;;;;;;;;;;;;;;;;5067046;28;20455;-70
2022/04/10 08:50:35;;;;;;;;;;;;;;;;;;5060077;28;19950;-70
2022/04/10 08:53:02;;;;;;;;;;;;;;;;;;5059014;28;19928;-69
2022/04/10 08:55:28;;;;;;;;;;;;;;;;;;5056377;28;19994;-69
2022/04/10 08:57:54;;;;;;;;;;;;;;;;;;5054579;28;19928;-69
2022/04/10 09:00:20;;;;;;;;;;;;;;;;;;5046974;28;19937;-70
2022/04/10 09:02:46;;;;;;;;;;;;;;;;;;5046416;28;19971;-69
2022/04/10 09:05:12;;;;;;;;;;;;;;;;;;5046528;28;20361;-70
2022/04/10 09:07:38;;;;;;;;;;;;;;;;;;5055979;28;20583;-69
2022/04/10 09:10:05;;;;;;;;;;;;;;;;;;5062718;28;19925;-69
2022/04/10 09:12:31;;;;;;;;;;;;;;;;;;5047667;28;20020;-69
2022/04/10 09:14:57;;;;;;;;;;;;;;;;;;5049614;28;19928;-69
2022/04/10 09:17:23;;;;;;;;;;;;;;;;;;5049824;28;19925;-69
2022/04/10 09:19:49;;;;;;;;;;;;;;;;;;5069734;28;19924;-69
2022/04/10 09:22:15;;;;;;;;;;;;;;;;;;5069595;28;19955;-69
2022/04/10 09:24:42;;;;;;;;;;;;;;;;;;5069738;28;20262;-69
2022/04/10 09:27:08;;;;;;;;;;;;;;;;;;5069334;28;19947;-70
2022/04/10 09:29:34;;;;;;;;;;;;;;;;;;5069181;28;19930;-69
2022/04/10 09:32:00;;;;;;;;;;;;;;;;;;5069012;28;19935;-68
2022/04/10 09:34:26;;;;;;;;;;;;;;;;;;5070138;28;19940;-69
2022/04/10 09:36:53;;;;;;;;;;;;;;;;;;5071119;28;20094;-69
2022/04/10 09:39:19;;;;;;;;;;;;;;;;;;5070348;28;19931;-69
2022/04/10 09:41:45;;;;;;;;;;;;;;;;;;5069572;28;19925;-68
2022/04/10 09:44:11;;;;;;;;;;;;;;;;;;5069255;28;19924;-69
2022/04/10 09:46:38;;;;;;;;;;;;;;;;;;5069399;28;19925;-69
2022/04/10 09:49:04;;;;;;;;;;;;;;;;;;5069277;28;19924;-69
2022/04/10 09:51:31;;;;;;;;;;;;;;;;;;5069268;28;20338;-70
2022/04/10 09:53:57;;;;;;;;;;;;;;;;;;5069499;28;19954;-68
2022/04/10 09:56:23;;;;;;;;;;;;;;;;;;5069410;28;19939;-69
2022/04/10 09:58:49;;;;;;;;;;;;;;;;;;5069411;28;19935;-69
2022/04/10 10:01:17;;;;;;;;;;;;;;;;;;5069337;28;20396;-70
2022/04/10 10:03:43;;;;;;;;;;;;;;;;;;5069676;28;20399;-69
2022/04/10 10:06:09;;;;;;;;;;;;;;;;;;5070183;28;20373;-71
2022/04/10 10:08:35;;;;;;;;;;;;;;;;;;5070774;28;20253;-71
2022/04/10 10:11:01;;;;;;;;;;;;;;;;;;5070416;28;19924;-70
2022/04/10 10:13:28;;;;;;;;;;;;;;;;;;5069358;28;19929;-69
2022/04/10 10:15:54;;;;;;;;;;;;;;;;;;5068198;28;19961;-70
2022/04/10 10:18:21;;;;;;;;;;;;;;;;;;5068934;28;19928;-72
2022/04/10 10:20:47;;;;;;;;;;;;;;;;;;5068979;28;20404;-69
2022/04/10 10:23:13;;;;;;;;;;;;;;;;;;5068327;28;19924;-71
2022/04/10 10:25:39;;;;;;;;;;;;;;;;;;5068328;28;20033;-72
2022/04/10 10:28:05;;;;;;;;;;;;;;;;;;5069001;28;20383;-71
2022/04/10 10:30:31;;;;;;;;;;;;;;;;;;5068587;28;20105;-71
2022/04/10 10:32:58;;;;;;;;;;;;;;;;;;5068464;28;19932;-70
2022/04/10 10:35:24;;;;;;;;;;;;;;;;;;5068731;28;20024;-69
2022/04/10 10:37:50;;;;;;;;;;;;;;;;;;5069143;28;19939;-69
2022/04/10 10:40:17;;;;;;;;;;;;;;;;;;5068559;28;19928;-70
2022/04/10 10:42:45;;;;;;;;;;;;;;;;;;5068957;28;20015;-71
2022/04/10 10:45:11;;;;;;;;;;;;;;;;;;5068322;28;20178;-72
2022/04/10 10:47:39;;;;;;;;;;;;;;;;;;5068811;28;20021;-70
2022/04/10 10:50:05;;;;;;;;;;;;;;;;;;5068688;28;19928;-69
2022/04/10 10:52:32;;;;;;;;;;;;;;;;;;5068364;28;19925;-70
2022/04/10 10:54:58;;;;;;;;;;;;;;;;;;5068719;28;20424;-71
2022/04/10 10:57:24;;;;;;;;;;;;;;;;;;5068974;28;20046;-69
2022/04/10 10:59:50;;;;;;;;;;;;;;;;;;5069715;28;19930;-72
2022/04/10 11:02:17;;;;;;;;;;;;;;;;;;5068265;28;19931;-67
2022/04/10 11:04:44;;;;;;;;;;;;;;;;;;5068690;28;19924;-68
2022/04/10 11:07:10;;;;;;;;;;;;;;;;;;5068644;28;19925;-70
2022/04/10 11:09:36;;;;;;;;;;;;;;;;;;5068257;28;19929;-67
2022/04/10 11:12:03;;;;;;;;;;;;;;;;;;5067962;28;19947;-70
2022/04/10 11:14:29;;;;;;;;;;;;;;;;;;5068702;28;19931;-70
2022/04/10 11:16:55;;;;;;;;;;;;;;;;;;5068167;28;19924;-69
2022/04/10 11:19:23;;;;;;;;;;;;;;;;;;5068149;28;19939;-69
2022/04/10 11:21:49;;;;;;;;;;;;;;;;;;5067977;28;20315;-69
2022/04/10 11:24:15;;;;;;;;;;;;;;;;;;5068042;28;19932;-70
2022/04/10 11:26:41;;;;;;;;;;;;;;;;;;5067725;28;19925;-70
2022/04/10 11:29:08;;;;;;;;;;;;;;;;;;5071413;28;19964;-70
2022/04/10 11:31:34;;;;;;;;;;;;;;;;;;5070996;28;19935;-70
2022/04/10 11:34:00;;;;;;;;;;;;;;;;;;5071638;28;20375;-70
2022/04/10 11:36:27;;;;;;;;;;;;;;;;;;5069996;28;19934;-70
2022/04/10 11:38:53;;;;;;;;;;;;;;;;;;5071518;28;19942;-70
2022/04/10 11:41:19;;;;;;;;;;;;;;;;;;5071053;28;20019;-70
2022/04/10 11:43:45;;;;;;;;;;;;;;;;;;5071280;28;20408;-70
2022/04/10 11:46:11;;;;;;;;;;;;;;;;;;5070775;28;20300;-70
2022/04/10 11:48:37;;;;;;;;;;;;;;;;;;5071695;28;20419;-70
2022/04/10 11:51:03;;;;;;;;;;;;;;;;;;5071207;28;20396;-69
2022/04/10 11:53:30;;;;;;;;;;;;;;;;;;5071766;28;19942;-70
2022/04/10 11:55:56;;;;;;;;;;;;;;;;;;5071341;28;19968;-70
2022/04/10 11:58:22;;;;;;;;;;;;;;;;;;5071914;28;19931;-70
2022/04/10 12:00:48;;;;;;;;;;;;;;;;;;5070645;28;20824;-70
2022/04/10 12:03:14;;;;;;;;;;;;;;;;;;5070852;28;19981;-69
2022/04/10 12:05:40;;;;;;;;;;;;;;;;;;5071134;28;20289;-70
2022/04/10 12:08:06;;;;;;;;;;;;;;;;;;5071209;28;19948;-69
2022/04/10 12:10:33;;;;;;;;;;;;;;;;;;5070990;28;19941;-69
2022/04/10 12:12:59;;;;;;;;;;;;;;;;;;5070538;28;20038;-70
2022/04/10 12:15:25;;;;;;;;;;;;;;;;;;5075970;28;20076;-69
2022/04/10 12:17:51;;;;;;;;;;;;;;;;;;5073817;28;20403;-69
2022/04/10 12:20:18;;;;;;;;;;;;;;;;;;5070951;28;20430;-69
2022/04/10 12:22:44;;;;;;;;;;;;;;;;;;5073499;28;19940;-69
2022/04/10 12:25:11;;;;;;;;;;;;;;;;;;5070437;28;20025;-69
2022/04/10 12:27:37;;;;;;;;;;;;;;;;;;5070535;28;19945;-69
2022/04/10 12:30:04;;;;;;;;;;;;;;;;;;5070811;28;19938;-70
2022/04/10 12:32:30;;;;;;;;;;;;;;;;;;5070132;28;19951;-69
2022/04/10 12:34:56;;;;;;;;;;;;;;;;;;5070776;28;20018;-70
2022/04/10 12:37:22;;;;;;;;;;;;;;;;;;5070681;28;19945;-70
2022/04/10 12:39:48;;;;;;;;;;;;;;;;;;5069550;28;19948;-70
2022/04/10 12:42:19;;;;;;;;;;;;;;;;;;5069750;28;20382;-70
2022/04/10 12:44:45;;;;;;;;;;;;;;;;;;5070264;28;20017;-70
2022/04/10 12:47:11;;;;;;;;;;;;;;;;;;5067823;28;19964;-70
2022/04/10 12:49:39;;;;;;;;;;;;;;;;;;5070306;28;19939;-70
2022/04/10 12:52:05;;;;;;;;;;;;;;;;;;5069539;28;19944;-69
2022/04/10 12:54:31;;;;;;;;;;;;;;;;;;5069866;28;20005;-70
2022/04/10 12:56:57;;;;;;;;;;;;;;;;;;5068775;28;19928;-69
2022/04/10 12:59:23;;;;;;;;;;;;;;;;;;5069964;28;20372;-69
2022/04/10 13:01:49;;;;;;;;;;;;;;;;;;5069247;28;19936;-70
2022/04/10 13:04:15;;;;;;;;;;;;;;;;;;5069368;28;19932;-70
2022/04/10 13:06:42;;;;;;;;;;;;;;;;;;5070327;28;19979;-70
2022/04/10 13:09:08;;;;;;;;;;;;;;;;;;5069750;28;19939;-70
2022/04/10 13:11:34;;;;;;;;;;;;;;;;;;5063842;28;19941;-68
2022/04/10 13:14:00;;;;;;;;;;;;;;;;;;5069515;28;19966;-68
2022/04/10 13:16:27;;;;;;;;;;;;;;;;;;5064228;28;19936;-71
2022/04/10 13:18:53;;;;;;;;;;;;;;;;;;5069774;28;20311;-68
2022/04/10 13:21:19;;;;;;;;;;;;;;;;;;5069385;28;19925;-70
2022/04/10 13:23:45;;;;;;;;;;;;;;;;;;5069251;28;20052;-69
2022/04/10 13:26:11;;;;;;;;;;;;;;;;;;5075226;28;19960;-69
2022/04/10 13:28:37;;;;;;;;;;;;;;;;;;5069727;28;19948;-69
2022/04/10 13:31:03;;;;;;;;;;;;;;;;;;5068789;28;20072;-68
2022/04/10 13:33:30;;;;;;;;;;;;;;;;;;5068962;28;20029;-69
2022/04/10 13:35:56;;;;;;;;;;;;;;;;;;5069175;28;19950;-69
2022/04/10 13:38:22;;;;;;;;;;;;;;;;;;5069158;28;19935;-69
2022/04/10 13:40:48;;;;;;;;;;;;;;;;;;5068512;28;19925;-69
2022/04/10 13:43:14;;;;;;;;;;;;;;;;;;5068748;28;19925;-69
2022/04/10 13:45:40;;;;;;;;;;;;;;;;;;5073612;28;19931;-70
2022/04/10 13:48:06;;;;;;;;;;;;;;;;;;5068744;28;20019;-69
2022/04/10 13:50:33;;;;;;;;;;;;;;;;;;5069023;28;19924;-69
2022/04/10 13:52:59;;;;;;;;;;;;;;;;;;5069522;28;19955;-69
2022/04/10 13:55:25;;;;;;;;;;;;;;;;;;5068589;28;19955;-69
2022/04/10 13:57:51;;;;;;;;;;;;;;;;;;5069618;28;19925;-68
2022/04/10 14:00:17;;;;;;;;;;;;;;;;;;5068481;28;19938;-68
2022/04/10 14:02:44;;;;;;;;;;;;;;;;;;5068278;28;19925;-68
2022/04/10 14:05:16;;;;;;;;;;;;;;;;;;5068610;28;19954;-69
2022/04/10 14:07:55;;;;;;;;;;;;;;;;;;5047531;28;19955;-68
2022/04/10 14:10:21;;;;;;;;;;;;;;;;;;5050423;28;20377;-70
2022/04/10 14:12:47;;;;;;;;;;;;;;;;;;5054021;28;19961;-70
2022/04/10 14:15:14;;;;;;;;;;;;;;;;;;5052706;28;19925;-71
2022/04/10 14:17:40;;;;;;;;;;;;;;;;;;5054000;28;19939;-68
2022/04/10 14:20:06;;;;;;;;;;;;;;;;;;5054634;28;19971;-70
2022/04/10 14:22:32;;;;;;;;;;;;;;;;;;5057865;28;20559;-69
2022/04/10 14:24:58;;;;;;;;;;;;;;;;;;5060515;28;19954;-68
2022/04/10 14:27:24;;;;;;;;;;;;;;;;;;5059997;28;20000;-69
2022/04/10 14:29:51;;;;;;;;;;;;;;;;;;5060246;28;19955;-71
2022/04/10 14:32:17;;;;;;;;;;;;;;;;;;5061172;28;20377;-70
2022/04/10 14:34:43;;;;;;;;;;;;;;;;;;5060139;28;19925;-70
2022/04/10 14:37:09;;;;;;;;;;;;;;;;;;5059768;28;19935;-71
2022/04/10 14:39:35;;;;;;;;;;;;;;;;;;5059451;28;19924;-70
2022/04/10 14:42:01;;;;;;;;;;;;;;;;;;5060500;28;19925;-71
2022/04/10 14:44:28;;;;;;;;;;;;;;;;;;5056746;28;19962;-70
2022/04/10 14:46:54;;;;;;;;;;;;;;;;;;5058014;28;20300;-69
2022/04/10 14:49:20;;;;;;;;;;;;;;;;;;5058610;28;19932;-69
2022/04/10 14:51:46;;;;;;;;;;;;;;;;;;5059818;28;20191;-69
2022/04/10 14:54:13;;;;;;;;;;;;;;;;;;5059568;28;19925;-66
2022/04/10 14:56:40;;;;;;;;;;;;;;;;;;5059117;28;19928;-66
2022/04/10 14:59:06;;;;;;;;;;;;;;;;;;5058966;28;20405;-66
2022/04/10 15:01:32;;;;;;;;;;;;;;;;;;5058361;28;20060;-66
2022/04/10 15:03:58;;;;;;;;;;;;;;;;;;5059904;28;20373;-66
2022/04/10 15:06:24;;;;;;;;;;;;;;;;;;5058200;28;19935;-66
2022/04/10 15:08:50;;;;;;;;;;;;;;;;;;5055593;28;19962;-67
2022/04/10 15:11:17;;;;;;;;;;;;;;;;;;5055665;28;19956;-66
2022/04/10 15:13:43;;;;;;;;;;;;;;;;;;5055205;28;19925;-67
2022/04/10 15:16:09;;;;;;;;;;;;;;;;;;5055319;28;19929;-67
2022/04/10 15:18:35;;;;;;;;;;;;;;;;;;5053410;28;19960;-66
2022/04/10 15:21:01;;;;;;;;;;;;;;;;;;5053930;28;19956;-66
2022/04/10 15:23:28;;;;;;;;;;;;;;;;;;5057089;28;19936;-66
2022/04/10 15:25:54;;;;;;;;;;;;;;;;;;5050854;28;20570;-66
2022/04/10 15:28:20;;;;;;;;;;;;;;;;;;5056925;28;19980;-66
2022/04/10 15:30:46;;;;;;;;;;;;;;;;;;5053635;28;19956;-66
2022/04/10 15:33:12;;;;;;;;;;;;;;;;;;5053458;28;20027;-65
2022/04/10 15:35:41;;;;;;;;;;;;;;;;;;5053407;28;20424;-65
2022/04/10 15:38:07;;;;;;;;;;;;;;;;;;5053520;28;20348;-67
2022/04/10 15:40:33;;;;;;;;;;;;;;;;;;5059516;28;19963;-67
2022/04/10 15:42:59;;;;;;;;;;;;;;;;;;5062883;28;20004;-67
2022/04/10 15:45:26;;;;;;;;;;;;;;;;;;5064350;28;19969;-66
2022/04/10 15:47:53;;;;;;;;;;;;;;;;;;5064183;28;19975;-66
2022/04/10 15:50:19;;;;;;;;;;;;;;;;;;5063155;28;19993;-65
2022/04/10 15:52:46;;;;;;;;;;;;;;;;;;5061747;28;19950;-66
2022/04/10 15:55:12;;;;;;;;;;;;;;;;;;5061268;28;19959;-66
2022/04/10 15:57:38;;;;;;;;;;;;;;;;;;5060451;28;20049;-66
2022/04/10 16:00:05;;;;;;;;;;;;;;;;;;5063159;28;19965;-66
2022/04/10 16:02:31;;;;;;;;;;;;;;;;;;5067345;28;19943;-67
2022/04/10 16:04:58;;;;;;;;;;;;;;;;;;5066616;28;20017;-72
2022/04/10 16:07:24;;;;;;;;;;;;;;;;;;5061572;28;19968;-69
2022/04/10 16:09:50;;;;;;;;;;;;;;;;;;5056456;28;19961;-69
2022/04/10 16:12:16;;;;;;;;;;;;;;;;;;5054782;28;19982;-69
2022/04/10 16:14:42;;;;;;;;;;;;;;;;;;5053525;28;20141;-66
2022/04/10 16:17:10;;;;;;;;;;;;;;;;;;5064410;28;19948;-67
2022/04/10 16:19:36;;;;;;;;;;;;;;;;;;5066144;28;19966;-67
2022/04/10 16:22:02;;;;;;;;;;;;;;;;;;5066282;28;19953;-67
2022/04/10 16:24:28;;;;;;;;;;;;;;;;;;5067520;28;19964;-66
2022/04/10 16:32:27;;;;;;;;;;;;;;;;;;5067590;28;19977;-67
2022/04/10 16:34:53;;;;;;;;;;;;;;;;;;5066891;28;19967;-66
2022/04/10 16:37:20;;;;;;;;;;;;;;;;;;5066399;28;19950;-67
2022/04/10 16:39:47;;;;;;;;;;;;;;;;;;5065140;28;19947;-66
2022/04/10 16:42:13;;;;;;;;;;;;;;;;;;5064246;28;20049;-65
2022/04/10 16:44:39;;;;;;;;;;;;;;;;;;5065010;28;19966;-67
2022/04/10 16:47:05;;;;;;;;;;;;;;;;;;5060513;28;19969;-68
2022/04/10 16:49:31;;;;;;;;;;;;;;;;;;5058764;28;20023;-66